sensor_id;sensor_type;location;lat;lon;timestamp;P1;durP1;ratioP1;P2;durP2;ratioP2
29774;SDS011;16676;51.202;6.774;2023-05-14T00:02:28;12.95;;;9.63;;
29774;SDS011;16676;51.202;6.774;2023-05-14T00:06:30;15.30;;;10.10;;
29774;SDS011;16676;51.202;6.774;2023-05-14T00:10:32;14.45;;;10.00;;
29774;SDS011;16676;51.202;6.774;2023-05-14T00:14:34;14.93;;;9.68;;
29774;SDS011;16676;51.202;6.774;2023-05-14T00:18:37;15.30;;;10.07;;
29774;SDS011;16676;51.202;6.774;2023-05-14T00:22:39;14.70;;;9.88;;
29774;SDS011;16676;51.202;6.774;2023-05-14T00:26:41;14.00;;;9.68;;
29774;SDS011;16676;51.202;6.774;2023-05-14T00:30:43;13.93;;;9.00;;
29774;SDS011;16676;51.202;6.774;2023-05-14T00:34:46;12.48;;;8.63;;
29774;SDS011;16676;51.202;6.774;2023-05-14T00:38:48;12.27;;;9.05;;
29774;SDS011;16676;51.202;6.774;2023-05-14T00:42:50;10.60;;;8.40;;
29774;SDS011;16676;51.202;6.774;2023-05-14T00:46:52;12.50;;;9.15;;
29774;SDS011;16676;51.202;6.774;2023-05-14T00:50:56;12.07;;;8.93;;
29774;SDS011;16676;51.202;6.774;2023-05-14T00:54:58;12.05;;;8.13;;
29774;SDS011;16676;51.202;6.774;2023-05-14T00:59:03;13.27;;;9.05;;
29774;SDS011;16676;51.202;6.774;2023-05-14T01:03:05;12.45;;;8.82;;
29774;SDS011;16676;51.202;6.774;2023-05-14T01:07:10;11.68;;;8.45;;
29774;SDS011;16676;51.202;6.774;2023-05-14T01:11:23;12.30;;;8.45;;
29774;SDS011;16676;51.202;6.774;2023-05-14T01:15:33;14.43;;;8.82;;
29774;SDS011;16676;51.202;6.774;2023-05-14T01:19:39;10.30;;;7.75;;
29774;SDS011;16676;51.202;6.774;2023-05-14T01:23:44;10.60;;;7.97;;
29774;SDS011;16676;51.202;6.774;2023-05-14T01:27:48;11.32;;;7.93;;
29774;SDS011;16676;51.202;6.774;2023-05-14T01:31:58;9.95;;;7.50;;
29774;SDS011;16676;51.202;6.774;2023-05-14T01:36:01;11.45;;;7.53;;
29774;SDS011;16676;51.202;6.774;2023-05-14T01:40:05;10.30;;;7.78;;
29774;SDS011;16676;51.202;6.774;2023-05-14T01:44:09;10.40;;;7.53;;
29774;SDS011;16676;51.202;6.774;2023-05-14T01:48:11;11.30;;;7.25;;
29774;SDS011;16676;51.202;6.774;2023-05-14T01:52:13;10.57;;;7.00;;
29774;SDS011;16676;51.202;6.774;2023-05-14T01:56:16;10.38;;;7.25;;
29774;SDS011;16676;51.202;6.774;2023-05-14T02:00:18;10.93;;;7.20;;
29774;SDS011;16676;51.202;6.774;2023-05-14T02:04:22;10.73;;;7.25;;
29774;SDS011;16676;51.202;6.774;2023-05-14T02:08:24;12.25;;;6.82;;
29774;SDS011;16676;51.202;6.774;2023-05-14T02:12:27;11.13;;;7.45;;
29774;SDS011;16676;51.202;6.774;2023-05-14T02:16:29;10.90;;;7.40;;
29774;SDS011;16676;51.202;6.774;2023-05-14T02:20:31;12.52;;;7.07;;
29774;SDS011;16676;51.202;6.774;2023-05-14T02:24:33;10.77;;;6.90;;
29774;SDS011;16676;51.202;6.774;2023-05-14T02:28:36;11.10;;;7.30;;
29774;SDS011;16676;51.202;6.774;2023-05-14T02:32:38;8.55;;;6.47;;
29774;SDS011;16676;51.202;6.774;2023-05-14T02:36:40;9.23;;;6.93;;
29774;SDS011;16676;51.202;6.774;2023-05-14T02:40:42;10.52;;;7.20;;
29774;SDS011;16676;51.202;6.774;2023-05-14T02:44:45;9.10;;;6.57;;
29774;SDS011;16676;51.202;6.774;2023-05-14T02:48:47;8.98;;;6.53;;
29774;SDS011;16676;51.202;6.774;2023-05-14T02:52:49;9.85;;;6.75;;
29774;SDS011;16676;51.202;6.774;2023-05-14T02:56:51;8.73;;;6.80;;
29774;SDS011;16676;51.202;6.774;2023-05-14T03:00:54;11.57;;;6.78;;
29774;SDS011;16676;51.202;6.774;2023-05-14T03:04:56;10.60;;;6.95;;
29774;SDS011;16676;51.202;6.774;2023-05-14T03:08:58;13.75;;;6.97;;
29774;SDS011;16676;51.202;6.774;2023-05-14T03:13:00;10.73;;;6.78;;
29774;SDS011;16676;51.202;6.774;2023-05-14T03:17:03;8.68;;;6.68;;
29774;SDS011;16676;51.202;6.774;2023-05-14T03:21:05;9.75;;;6.68;;
29774;SDS011;16676;51.202;6.774;2023-05-14T03:25:08;8.30;;;6.22;;
29774;SDS011;16676;51.202;6.774;2023-05-14T03:29:10;10.15;;;6.68;;
29774;SDS011;16676;51.202;6.774;2023-05-14T03:33:14;8.13;;;6.40;;
29774;SDS011;16676;51.202;6.774;2023-05-14T03:37:15;10.05;;;6.78;;
29774;SDS011;16676;51.202;6.774;2023-05-14T03:41:17;9.15;;;6.22;;
29774;SDS011;16676;51.202;6.774;2023-05-14T03:45:21;9.48;;;6.53;;
29774;SDS011;16676;51.202;6.774;2023-05-14T03:49:24;8.68;;;6.28;;
29774;SDS011;16676;51.202;6.774;2023-05-14T03:53:26;11.18;;;6.47;;
29774;SDS011;16676;51.202;6.774;2023-05-14T03:57:28;9.50;;;6.38;;
29774;SDS011;16676;51.202;6.774;2023-05-14T04:01:30;9.98;;;5.95;;
29774;SDS011;16676;51.202;6.774;2023-05-14T04:05:33;9.80;;;6.40;;
29774;SDS011;16676;51.202;6.774;2023-05-14T04:09:35;8.23;;;6.25;;
29774;SDS011;16676;51.202;6.774;2023-05-14T04:13:37;8.57;;;5.90;;
29774;SDS011;16676;51.202;6.774;2023-05-14T04:17:38;7.97;;;5.93;;
29774;SDS011;16676;51.202;6.774;2023-05-14T04:21:42;9.85;;;5.97;;
29774;SDS011;16676;51.202;6.774;2023-05-14T04:25:44;9.95;;;6.20;;
29774;SDS011;16676;51.202;6.774;2023-05-14T04:29:46;9.43;;;6.10;;
29774;SDS011;16676;51.202;6.774;2023-05-14T04:33:48;8.77;;;6.30;;
29774;SDS011;16676;51.202;6.774;2023-05-14T04:37:51;9.88;;;5.97;;
29774;SDS011;16676;51.202;6.774;2023-05-14T04:41:53;9.77;;;6.22;;
29774;SDS011;16676;51.202;6.774;2023-05-14T04:45:55;10.45;;;5.85;;
29774;SDS011;16676;51.202;6.774;2023-05-14T04:49:57;6.75;;;5.80;;
29774;SDS011;16676;51.202;6.774;2023-05-14T04:54:00;7.53;;;5.50;;
29774;SDS011;16676;51.202;6.774;2023-05-14T04:58:02;8.18;;;5.60;;
29774;SDS011;16676;51.202;6.774;2023-05-14T05:02:04;8.35;;;5.55;;
29774;SDS011;16676;51.202;6.774;2023-05-14T05:06:06;8.02;;;5.22;;
29774;SDS011;16676;51.202;6.774;2023-05-14T05:10:10;7.85;;;5.78;;
29774;SDS011;16676;51.202;6.774;2023-05-14T05:14:11;6.85;;;5.63;;
29774;SDS011;16676;51.202;6.774;2023-05-14T05:18:13;10.27;;;5.75;;
29774;SDS011;16676;51.202;6.774;2023-05-14T05:22:15;8.77;;;6.07;;
29774;SDS011;16676;51.202;6.774;2023-05-14T05:26:19;9.25;;;5.90;;
29774;SDS011;16676;51.202;6.774;2023-05-14T05:30:22;9.07;;;6.32;;
29774;SDS011;16676;51.202;6.774;2023-05-14T05:34:24;9.18;;;6.28;;
29774;SDS011;16676;51.202;6.774;2023-05-14T05:38:26;11.32;;;6.70;;
29774;SDS011;16676;51.202;6.774;2023-05-14T05:42:29;11.30;;;6.78;;
29774;SDS011;16676;51.202;6.774;2023-05-14T05:46:31;8.30;;;6.45;;
29774;SDS011;16676;51.202;6.774;2023-05-14T05:50:33;9.98;;;6.63;;
29774;SDS011;16676;51.202;6.774;2023-05-14T05:54:35;12.02;;;6.97;;
29774;SDS011;16676;51.202;6.774;2023-05-14T05:58:40;11.57;;;7.72;;
29774;SDS011;16676;51.202;6.774;2023-05-14T06:02:42;10.82;;;8.52;;
29774;SDS011;16676;51.202;6.774;2023-05-14T06:06:44;11.90;;;7.90;;
29774;SDS011;16676;51.202;6.774;2023-05-14T06:10:46;9.15;;;7.82;;
29774;SDS011;16676;51.202;6.774;2023-05-14T06:14:49;12.82;;;8.65;;
29774;SDS011;16676;51.202;6.774;2023-05-14T06:18:51;13.55;;;9.27;;
29774;SDS011;16676;51.202;6.774;2023-05-14T06:22:54;12.48;;;10.05;;
29774;SDS011;16676;51.202;6.774;2023-05-14T06:26:56;12.57;;;10.30;;
29774;SDS011;16676;51.202;6.774;2023-05-14T06:30:59;16.30;;;11.93;;
29774;SDS011;16676;51.202;6.774;2023-05-14T06:35:01;16.85;;;13.07;;
29774;SDS011;16676;51.202;6.774;2023-05-14T06:39:03;22.05;;;13.80;;
29774;SDS011;16676;51.202;6.774;2023-05-14T06:43:05;17.13;;;11.55;;
29774;SDS011;16676;51.202;6.774;2023-05-14T06:47:08;18.85;;;13.20;;
29774;SDS011;16676;51.202;6.774;2023-05-14T06:51:10;15.00;;;11.73;;
29774;SDS011;16676;51.202;6.774;2023-05-14T06:55:13;14.98;;;11.02;;
29774;SDS011;16676;51.202;6.774;2023-05-14T06:59:15;15.55;;;11.05;;
29774;SDS011;16676;51.202;6.774;2023-05-14T07:03:18;20.73;;;14.70;;
29774;SDS011;16676;51.202;6.774;2023-05-14T07:07:21;16.50;;;13.77;;
29774;SDS011;16676;51.202;6.774;2023-05-14T07:11:23;17.00;;;12.57;;
29774;SDS011;16676;51.202;6.774;2023-05-14T07:15:25;15.57;;;11.23;;
29774;SDS011;16676;51.202;6.774;2023-05-14T07:19:28;15.05;;;11.90;;
29774;SDS011;16676;51.202;6.774;2023-05-14T07:23:30;15.15;;;12.32;;
29774;SDS011;16676;51.202;6.774;2023-05-14T07:27:32;16.23;;;13.05;;
29774;SDS011;16676;51.202;6.774;2023-05-14T07:31:34;18.15;;;13.10;;
29774;SDS011;16676;51.202;6.774;2023-05-14T07:35:37;17.35;;;13.23;;
29774;SDS011;16676;51.202;6.774;2023-05-14T07:39:39;15.55;;;12.27;;
29774;SDS011;16676;51.202;6.774;2023-05-14T07:43:41;18.63;;;14.18;;
29774;SDS011;16676;51.202;6.774;2023-05-14T07:47:45;16.45;;;12.75;;
29774;SDS011;16676;51.202;6.774;2023-05-14T07:51:52;17.13;;;14.27;;
29774;SDS011;16676;51.202;6.774;2023-05-14T07:55:54;16.75;;;14.00;;
29774;SDS011;16676;51.202;6.774;2023-05-14T07:59:56;22.75;;;14.90;;
29774;SDS011;16676;51.202;6.774;2023-05-14T08:03:58;18.42;;;13.60;;
29774;SDS011;16676;51.202;6.774;2023-05-14T08:08:01;16.38;;;13.05;;
29774;SDS011;16676;51.202;6.774;2023-05-14T08:12:03;14.10;;;10.60;;
29774;SDS011;16676;51.202;6.774;2023-05-14T08:16:06;14.55;;;11.85;;
29774;SDS011;16676;51.202;6.774;2023-05-14T08:20:08;13.18;;;10.70;;
29774;SDS011;16676;51.202;6.774;2023-05-14T08:24:13;14.43;;;11.20;;
29774;SDS011;16676;51.202;6.774;2023-05-14T08:28:15;14.50;;;12.45;;
29774;SDS011;16676;51.202;6.774;2023-05-14T08:32:17;14.70;;;11.00;;
29774;SDS011;16676;51.202;6.774;2023-05-14T08:36:18;14.05;;;11.18;;
29774;SDS011;16676;51.202;6.774;2023-05-14T08:40:22;12.52;;;10.23;;
29774;SDS011;16676;51.202;6.774;2023-05-14T08:44:25;13.45;;;10.82;;
29774;SDS011;16676;51.202;6.774;2023-05-14T08:48:32;17.40;;;11.23;;
29774;SDS011;16676;51.202;6.774;2023-05-14T08:52:35;12.77;;;10.00;;
29774;SDS011;16676;51.202;6.774;2023-05-14T08:56:39;15.52;;;10.45;;
29774;SDS011;16676;51.202;6.774;2023-05-14T09:00:42;15.52;;;9.93;;
29774;SDS011;16676;51.202;6.774;2023-05-14T09:04:44;14.68;;;9.90;;
29774;SDS011;16676;51.202;6.774;2023-05-14T09:08:47;15.30;;;12.00;;
29774;SDS011;16676;51.202;6.774;2023-05-14T09:12:50;12.18;;;9.98;;
29774;SDS011;16676;51.202;6.774;2023-05-14T09:16:52;17.63;;;14.30;;
29774;SDS011;16676;51.202;6.774;2023-05-14T09:20:54;16.60;;;13.65;;
29774;SDS011;16676;51.202;6.774;2023-05-14T09:25:01;19.58;;;15.02;;
29774;SDS011;16676;51.202;6.774;2023-05-14T09:29:05;18.03;;;13.60;;
29774;SDS011;16676;51.202;6.774;2023-05-14T09:33:08;19.73;;;14.45;;
29774;SDS011;16676;51.202;6.774;2023-05-14T09:37:09;18.50;;;13.65;;
29774;SDS011;16676;51.202;6.774;2023-05-14T09:41:11;16.08;;;12.27;;
29774;SDS011;16676;51.202;6.774;2023-05-14T09:45:15;13.90;;;11.60;;
29774;SDS011;16676;51.202;6.774;2023-05-14T09:49:17;14.80;;;11.07;;
29774;SDS011;16676;51.202;6.774;2023-05-14T09:53:19;18.42;;;11.10;;
29774;SDS011;16676;51.202;6.774;2023-05-14T09:57:21;16.35;;;10.15;;
29774;SDS011;16676;51.202;6.774;2023-05-14T10:01:25;12.65;;;9.50;;
29774;SDS011;16676;51.202;6.774;2023-05-14T10:05:29;11.23;;;7.30;;
29774;SDS011;16676;51.202;6.774;2023-05-14T10:09:32;11.00;;;7.05;;
29774;SDS011;16676;51.202;6.774;2023-05-14T10:13:36;9.02;;;6.43;;
29774;SDS011;16676;51.202;6.774;2023-05-14T10:17:41;8.65;;;6.25;;
29774;SDS011;16676;51.202;6.774;2023-05-14T10:21:50;7.60;;;5.68;;
29774;SDS011;16676;51.202;6.774;2023-05-14T10:25:56;7.85;;;4.78;;
29774;SDS011;16676;51.202;6.774;2023-05-14T10:29:59;7.38;;;4.65;;
29774;SDS011;16676;51.202;6.774;2023-05-14T10:34:07;5.65;;;4.50;;
29774;SDS011;16676;51.202;6.774;2023-05-14T10:38:33;10.48;;;4.90;;
29774;SDS011;16676;51.202;6.774;2023-05-14T10:42:36;6.97;;;4.65;;
29774;SDS011;16676;51.202;6.774;2023-05-14T10:46:40;7.18;;;4.63;;
29774;SDS011;16676;51.202;6.774;2023-05-14T10:50:43;7.15;;;4.53;;
29774;SDS011;16676;51.202;6.774;2023-05-14T10:54:48;9.85;;;4.07;;
29774;SDS011;16676;51.202;6.774;2023-05-14T10:58:51;6.72;;;4.15;;
29774;SDS011;16676;51.202;6.774;2023-05-14T11:02:58;9.65;;;4.10;;
29774;SDS011;16676;51.202;6.774;2023-05-14T11:07:05;6.40;;;4.20;;
29774;SDS011;16676;51.202;6.774;2023-05-14T11:11:08;7.82;;;3.75;;
29774;SDS011;16676;51.202;6.774;2023-05-14T11:15:11;7.22;;;3.92;;
29774;SDS011;16676;51.202;6.774;2023-05-14T11:19:15;5.15;;;3.92;;
29774;SDS011;16676;51.202;6.774;2023-05-14T11:23:23;5.75;;;4.13;;
29774;SDS011;16676;51.202;6.774;2023-05-14T11:27:25;7.20;;;4.25;;
29774;SDS011;16676;51.202;6.774;2023-05-14T11:31:27;10.40;;;4.63;;
29774;SDS011;16676;51.202;6.774;2023-05-14T11:35:29;7.97;;;4.28;;
29774;SDS011;16676;51.202;6.774;2023-05-14T11:39:33;7.18;;;3.60;;
29774;SDS011;16676;51.202;6.774;2023-05-14T11:43:36;5.03;;;3.33;;
29774;SDS011;16676;51.202;6.774;2023-05-14T11:47:39;12.38;;;3.55;;
29774;SDS011;16676;51.202;6.774;2023-05-14T11:51:41;7.43;;;3.00;;
29774;SDS011;16676;51.202;6.774;2023-05-14T11:55:44;4.75;;;2.67;;
29774;SDS011;16676;51.202;6.774;2023-05-14T11:59:47;3.90;;;2.17;;
29774;SDS011;16676;51.202;6.774;2023-05-14T12:03:55;4.28;;;2.50;;
29774;SDS011;16676;51.202;6.774;2023-05-14T12:07:56;5.47;;;2.15;;
29774;SDS011;16676;51.202;6.774;2023-05-14T12:12:06;4.90;;;2.42;;
29774;SDS011;16676;51.202;6.774;2023-05-14T12:16:08;6.38;;;2.30;;
29774;SDS011;16676;51.202;6.774;2023-05-14T12:20:10;4.38;;;2.55;;
29774;SDS011;16676;51.202;6.774;2023-05-14T12:24:14;6.25;;;2.00;;
29774;SDS011;16676;51.202;6.774;2023-05-14T12:28:19;5.88;;;2.33;;
29774;SDS011;16676;51.202;6.774;2023-05-14T12:32:24;4.03;;;2.03;;
29774;SDS011;16676;51.202;6.774;2023-05-14T12:36:26;4.88;;;2.20;;
29774;SDS011;16676;51.202;6.774;2023-05-14T12:40:28;7.20;;;2.45;;
29774;SDS011;16676;51.202;6.774;2023-05-14T12:44:32;5.80;;;2.20;;
29774;SDS011;16676;51.202;6.774;2023-05-14T12:48:34;4.28;;;2.30;;
29774;SDS011;16676;51.202;6.774;2023-05-14T12:52:36;8.23;;;2.17;;
29774;SDS011;16676;51.202;6.774;2023-05-14T12:56:38;6.13;;;2.28;;
29774;SDS011;16676;51.202;6.774;2023-05-14T13:00:41;5.32;;;2.10;;
29774;SDS011;16676;51.202;6.774;2023-05-14T13:04:43;3.25;;;2.25;;
29774;SDS011;16676;51.202;6.774;2023-05-14T13:08:45;4.35;;;2.72;;
29774;SDS011;16676;51.202;6.774;2023-05-14T13:12:47;7.25;;;2.80;;
29774;SDS011;16676;51.202;6.774;2023-05-14T13:16:51;4.05;;;2.30;;
29774;SDS011;16676;51.202;6.774;2023-05-14T13:20:53;3.15;;;1.98;;
29774;SDS011;16676;51.202;6.774;2023-05-14T13:24:55;3.13;;;2.30;;
29774;SDS011;16676;51.202;6.774;2023-05-14T13:28:58;3.20;;;2.67;;
29774;SDS011;16676;51.202;6.774;2023-05-14T13:33:01;2.80;;;2.10;;
29774;SDS011;16676;51.202;6.774;2023-05-14T13:37:03;3.92;;;2.03;;
29774;SDS011;16676;51.202;6.774;2023-05-14T13:41:05;3.65;;;2.13;;
29774;SDS011;16676;51.202;6.774;2023-05-14T13:45:07;3.85;;;2.08;;
29774;SDS011;16676;51.202;6.774;2023-05-14T13:49:12;5.68;;;2.55;;
29774;SDS011;16676;51.202;6.774;2023-05-14T13:53:14;4.32;;;2.38;;
29774;SDS011;16676;51.202;6.774;2023-05-14T13:57:16;4.07;;;2.80;;
29774;SDS011;16676;51.202;6.774;2023-05-14T14:01:18;7.82;;;2.55;;
29774;SDS011;16676;51.202;6.774;2023-05-14T14:05:21;5.38;;;2.38;;
29774;SDS011;16676;51.202;6.774;2023-05-14T14:09:27;3.45;;;2.30;;
29774;SDS011;16676;51.202;6.774;2023-05-14T14:13:34;3.95;;;2.60;;
29774;SDS011;16676;51.202;6.774;2023-05-14T14:17:37;4.13;;;2.50;;
29774;SDS011;16676;51.202;6.774;2023-05-14T14:21:42;4.22;;;2.10;;
29774;SDS011;16676;51.202;6.774;2023-05-14T14:25:44;3.97;;;2.30;;
29774;SDS011;16676;51.202;6.774;2023-05-14T14:29:46;4.68;;;2.70;;
29774;SDS011;16676;51.202;6.774;2023-05-14T14:33:48;5.93;;;2.60;;
29774;SDS011;16676;51.202;6.774;2023-05-14T14:37:51;3.55;;;2.20;;
29774;SDS011;16676;51.202;6.774;2023-05-14T14:41:54;4.05;;;2.40;;
29774;SDS011;16676;51.202;6.774;2023-05-14T14:45:56;2.35;;;1.88;;
29774;SDS011;16676;51.202;6.774;2023-05-14T14:49:58;3.17;;;2.17;;
29774;SDS011;16676;51.202;6.774;2023-05-14T14:54:02;5.50;;;2.15;;
29774;SDS011;16676;51.202;6.774;2023-05-14T14:58:04;5.00;;;2.40;;
29774;SDS011;16676;51.202;6.774;2023-05-14T15:02:06;5.90;;;2.42;;
29774;SDS011;16676;51.202;6.774;2023-05-14T15:06:09;4.05;;;2.10;;
29774;SDS011;16676;51.202;6.774;2023-05-14T15:10:12;5.10;;;2.80;;
29774;SDS011;16676;51.202;6.774;2023-05-14T15:14:14;3.63;;;2.38;;
29774;SDS011;16676;51.202;6.774;2023-05-14T15:18:16;4.05;;;2.28;;
29774;SDS011;16676;51.202;6.774;2023-05-14T15:22:18;2.95;;;2.20;;
29774;SDS011;16676;51.202;6.774;2023-05-14T15:26:22;4.70;;;2.22;;
29774;SDS011;16676;51.202;6.774;2023-05-14T15:30:25;3.05;;;2.30;;
29774;SDS011;16676;51.202;6.774;2023-05-14T15:34:27;4.38;;;2.60;;
29774;SDS011;16676;51.202;6.774;2023-05-14T15:38:29;6.88;;;2.17;;
29774;SDS011;16676;51.202;6.774;2023-05-14T15:42:32;4.93;;;2.20;;
29774;SDS011;16676;51.202;6.774;2023-05-14T15:46:35;5.45;;;2.35;;
29774;SDS011;16676;51.202;6.774;2023-05-14T15:50:37;7.00;;;2.33;;
29774;SDS011;16676;51.202;6.774;2023-05-14T15:54:39;3.47;;;2.20;;
29774;SDS011;16676;51.202;6.774;2023-05-14T15:58:43;3.97;;;2.45;;
29774;SDS011;16676;51.202;6.774;2023-05-14T16:02:45;8.50;;;2.92;;
29774;SDS011;16676;51.202;6.774;2023-05-14T16:06:47;3.95;;;2.70;;
29774;SDS011;16676;51.202;6.774;2023-05-14T16:10:48;7.72;;;3.00;;
29774;SDS011;16676;51.202;6.774;2023-05-14T16:14:52;8.25;;;2.67;;
29774;SDS011;16676;51.202;6.774;2023-05-14T16:18:56;6.53;;;2.85;;
29774;SDS011;16676;51.202;6.774;2023-05-14T16:22:58;5.72;;;2.70;;
29774;SDS011;16676;51.202;6.774;2023-05-14T16:27:00;4.07;;;2.72;;
29774;SDS011;16676;51.202;6.774;2023-05-14T16:31:03;5.18;;;2.65;;
29774;SDS011;16676;51.202;6.774;2023-05-14T16:35:05;3.97;;;2.38;;
29774;SDS011;16676;51.202;6.774;2023-05-14T16:39:07;3.85;;;2.53;;
29774;SDS011;16676;51.202;6.774;2023-05-14T16:43:10;4.00;;;2.70;;
29774;SDS011;16676;51.202;6.774;2023-05-14T16:47:13;6.53;;;2.67;;
29774;SDS011;16676;51.202;6.774;2023-05-14T16:51:16;4.20;;;2.72;;
29774;SDS011;16676;51.202;6.774;2023-05-14T16:55:18;5.75;;;3.20;;
29774;SDS011;16676;51.202;6.774;2023-05-14T16:59:19;5.57;;;2.97;;
29774;SDS011;16676;51.202;6.774;2023-05-14T17:03:23;6.13;;;3.10;;
29774;SDS011;16676;51.202;6.774;2023-05-14T17:07:25;4.78;;;2.70;;
29774;SDS011;16676;51.202;6.774;2023-05-14T17:11:27;4.47;;;2.90;;
29774;SDS011;16676;51.202;6.774;2023-05-14T17:15:29;7.25;;;3.17;;
29774;SDS011;16676;51.202;6.774;2023-05-14T17:19:32;7.88;;;3.20;;
29774;SDS011;16676;51.202;6.774;2023-05-14T17:23:34;7.72;;;2.90;;
29774;SDS011;16676;51.202;6.774;2023-05-14T17:27:36;6.65;;;3.10;;
29774;SDS011;16676;51.202;6.774;2023-05-14T17:31:38;11.60;;;3.10;;
29774;SDS011;16676;51.202;6.774;2023-05-14T17:35:41;6.57;;;2.95;;
29774;SDS011;16676;51.202;6.774;2023-05-14T17:39:45;7.72;;;3.17;;
29774;SDS011;16676;51.202;6.774;2023-05-14T17:43:46;7.45;;;3.30;;
29774;SDS011;16676;51.202;6.774;2023-05-14T17:47:51;6.30;;;2.92;;
29774;SDS011;16676;51.202;6.774;2023-05-14T17:51:54;6.80;;;3.22;;
29774;SDS011;16676;51.202;6.774;2023-05-14T17:55:56;7.95;;;2.90;;
29774;SDS011;16676;51.202;6.774;2023-05-14T17:59:58;6.93;;;2.90;;
29774;SDS011;16676;51.202;6.774;2023-05-14T18:04:00;5.53;;;2.97;;
29774;SDS011;16676;51.202;6.774;2023-05-14T18:08:04;7.95;;;3.30;;
29774;SDS011;16676;51.202;6.774;2023-05-14T18:12:06;8.13;;;4.07;;
29774;SDS011;16676;51.202;6.774;2023-05-14T18:16:09;11.13;;;4.70;;
29774;SDS011;16676;51.202;6.774;2023-05-14T18:20:11;15.13;;;4.65;;
29774;SDS011;16676;51.202;6.774;2023-05-14T18:24:14;8.43;;;4.57;;
29774;SDS011;16676;51.202;6.774;2023-05-14T18:28:16;8.13;;;3.80;;
29774;SDS011;16676;51.202;6.774;2023-05-14T18:32:20;10.52;;;4.07;;
29774;SDS011;16676;51.202;6.774;2023-05-14T18:36:23;10.45;;;4.00;;
29774;SDS011;16676;51.202;6.774;2023-05-14T18:40:26;7.35;;;3.17;;
29774;SDS011;16676;51.202;6.774;2023-05-14T18:44:28;4.88;;;2.60;;
29774;SDS011;16676;51.202;6.774;2023-05-14T18:48:30;2.97;;;2.35;;
29774;SDS011;16676;51.202;6.774;2023-05-14T18:52:32;3.55;;;2.42;;
29774;SDS011;16676;51.202;6.774;2023-05-14T18:56:36;4.60;;;2.33;;
29774;SDS011;16676;51.202;6.774;2023-05-14T19:00:39;3.08;;;2.30;;
29774;SDS011;16676;51.202;6.774;2023-05-14T19:04:41;5.32;;;2.47;;
29774;SDS011;16676;51.202;6.774;2023-05-14T19:08:44;4.15;;;2.35;;
29774;SDS011;16676;51.202;6.774;2023-05-14T19:12:47;5.38;;;2.30;;
29774;SDS011;16676;51.202;6.774;2023-05-14T19:16:49;3.88;;;2.40;;
29774;SDS011;16676;51.202;6.774;2023-05-14T19:20:51;5.00;;;2.20;;
29774;SDS011;16676;51.202;6.774;2023-05-14T19:24:55;7.15;;;2.47;;
29774;SDS011;16676;51.202;6.774;2023-05-14T19:28:59;5.72;;;2.42;;
29774;SDS011;16676;51.202;6.774;2023-05-14T19:33:01;4.63;;;2.50;;
29774;SDS011;16676;51.202;6.774;2023-05-14T19:37:03;3.53;;;2.42;;
29774;SDS011;16676;51.202;6.774;2023-05-14T19:41:05;5.72;;;2.53;;
29774;SDS011;16676;51.202;6.774;2023-05-14T19:45:09;6.97;;;2.50;;
29774;SDS011;16676;51.202;6.774;2023-05-14T19:49:11;3.70;;;2.30;;
29774;SDS011;16676;51.202;6.774;2023-05-14T19:53:13;3.53;;;2.50;;
29774;SDS011;16676;51.202;6.774;2023-05-14T19:57:15;5.65;;;2.92;;
29774;SDS011;16676;51.202;6.774;2023-05-14T20:01:18;4.65;;;2.10;;
29774;SDS011;16676;51.202;6.774;2023-05-14T20:05:21;3.65;;;2.58;;
29774;SDS011;16676;51.202;6.774;2023-05-14T20:09:23;3.92;;;2.60;;
29774;SDS011;16676;51.202;6.774;2023-05-14T20:13:25;3.42;;;2.72;;
29774;SDS011;16676;51.202;6.774;2023-05-14T20:17:28;4.70;;;3.08;;
29774;SDS011;16676;51.202;6.774;2023-05-14T20:21:30;4.88;;;2.80;;
29774;SDS011;16676;51.202;6.774;2023-05-14T20:25:32;5.25;;;2.97;;
29774;SDS011;16676;51.202;6.774;2023-05-14T20:29:34;4.00;;;2.63;;
29774;SDS011;16676;51.202;6.774;2023-05-14T20:33:38;5.57;;;3.05;;
29774;SDS011;16676;51.202;6.774;2023-05-14T20:37:40;6.72;;;3.00;;
29774;SDS011;16676;51.202;6.774;2023-05-14T20:41:41;4.07;;;3.08;;
29774;SDS011;16676;51.202;6.774;2023-05-14T20:45:44;6.32;;;3.10;;
29774;SDS011;16676;51.202;6.774;2023-05-14T20:49:48;5.72;;;3.10;;
29774;SDS011;16676;51.202;6.774;2023-05-14T20:53:50;5.32;;;2.75;;
29774;SDS011;16676;51.202;6.774;2023-05-14T20:57:52;5.05;;;3.03;;
29774;SDS011;16676;51.202;6.774;2023-05-14T21:01:54;5.63;;;3.15;;
29774;SDS011;16676;51.202;6.774;2023-05-14T21:05:57;5.72;;;3.30;;
29774;SDS011;16676;51.202;6.774;2023-05-14T21:09:59;5.40;;;3.33;;
29774;SDS011;16676;51.202;6.774;2023-05-14T21:14:01;7.22;;;3.75;;
29774;SDS011;16676;51.202;6.774;2023-05-14T21:18:03;4.90;;;3.30;;
29774;SDS011;16676;51.202;6.774;2023-05-14T21:22:07;6.93;;;3.30;;
29774;SDS011;16676;51.202;6.774;2023-05-14T21:26:08;4.13;;;3.08;;
29774;SDS011;16676;51.202;6.774;2023-05-14T21:30:11;4.30;;;2.88;;
29774;SDS011;16676;51.202;6.774;2023-05-14T21:34:14;7.80;;;3.17;;
29774;SDS011;16676;51.202;6.774;2023-05-14T21:38:17;8.32;;;3.30;;
29774;SDS011;16676;51.202;6.774;2023-05-14T21:42:19;6.50;;;3.20;;
29774;SDS011;16676;51.202;6.774;2023-05-14T21:46:21;5.82;;;3.30;;
29774;SDS011;16676;51.202;6.774;2023-05-14T21:50:23;6.30;;;3.65;;
29774;SDS011;16676;51.202;6.774;2023-05-14T21:54:26;6.03;;;3.65;;
29774;SDS011;16676;51.202;6.774;2023-05-14T21:58:28;4.90;;;3.50;;
29774;SDS011;16676;51.202;6.774;2023-05-14T22:02:31;7.88;;;3.38;;
29774;SDS011;16676;51.202;6.774;2023-05-14T22:06:33;7.00;;;3.50;;
29774;SDS011;16676;51.202;6.774;2023-05-14T22:10:36;5.65;;;3.65;;
29774;SDS011;16676;51.202;6.774;2023-05-14T22:14:38;8.73;;;3.60;;
29774;SDS011;16676;51.202;6.774;2023-05-14T22:18:40;5.32;;;3.53;;
29774;SDS011;16676;51.202;6.774;2023-05-14T22:22:42;7.18;;;4.00;;
29774;SDS011;16676;51.202;6.774;2023-05-14T22:26:45;6.28;;;4.03;;
29774;SDS011;16676;51.202;6.774;2023-05-14T22:30:47;6.82;;;3.60;;
29774;SDS011;16676;51.202;6.774;2023-05-14T22:34:49;10.60;;;4.50;;
29774;SDS011;16676;51.202;6.774;2023-05-14T22:38:51;8.20;;;4.15;;
29774;SDS011;16676;51.202;6.774;2023-05-14T22:42:54;8.23;;;4.75;;
29774;SDS011;16676;51.202;6.774;2023-05-14T22:46:56;7.85;;;4.53;;
29774;SDS011;16676;51.202;6.774;2023-05-14T22:50:59;6.63;;;4.80;;
29774;SDS011;16676;51.202;6.774;2023-05-14T22:55:00;6.88;;;4.60;;
29774;SDS011;16676;51.202;6.774;2023-05-14T22:59:04;10.52;;;4.35;;
29774;SDS011;16676;51.202;6.774;2023-05-14T23:03:05;9.90;;;4.60;;
29774;SDS011;16676;51.202;6.774;2023-05-14T23:07:07;9.30;;;5.22;;
29774;SDS011;16676;51.202;6.774;2023-05-14T23:11:09;9.05;;;5.20;;
29774;SDS011;16676;51.202;6.774;2023-05-14T23:15:13;10.63;;;5.43;;
29774;SDS011;16676;51.202;6.774;2023-05-14T23:19:14;9.57;;;5.65;;
29774;SDS011;16676;51.202;6.774;2023-05-14T23:23:16;11.35;;;6.20;;
29774;SDS011;16676;51.202;6.774;2023-05-14T23:27:18;8.00;;;5.78;;
29774;SDS011;16676;51.202;6.774;2023-05-14T23:31:22;10.68;;;6.75;;
29774;SDS011;16676;51.202;6.774;2023-05-14T23:35:24;14.00;;;6.97;;
29774;SDS011;16676;51.202;6.774;2023-05-14T23:39:26;15.50;;;7.28;;
29774;SDS011;16676;51.202;6.774;2023-05-14T23:43:28;14.10;;;7.55;;
29774;SDS011;16676;51.202;6.774;2023-05-14T23:47:32;16.83;;;8.05;;
29774;SDS011;16676;51.202;6.774;2023-05-14T23:51:34;13.70;;;7.35;;
29774;SDS011;16676;51.202;6.774;2023-05-14T23:55:37;15.43;;;7.28;;
29774;SDS011;16676;51.202;6.774;2023-05-14T23:59:38;13.85;;;9.02;;
